Time;durP1;ratioP1;P1;durP2;ratioP2;P2;SDS_P1;SDS_P2;PMS_P1;PMS_P2;Temp;Humidity;BMP_temperature;BMP_pressure;BME280_temperature;BME280_humidity;BME280_pressure;Samples;Min_cycle;Max_cycle;Signal;HPM_P1;HPM_P2
2021/12/14 00:02:05;;;;;;;;;;;;;;;7.45;100.00;102703.00;5081645;28;19916;-74
2021/12/14 00:04:32;;;;;;;;;;;;;;;7.44;100.00;102703.78;5084987;28;19974;-74
2021/12/14 00:06:59;;;;;;;;;;;;;;;7.51;100.00;102703.44;5085189;28;20598;-74
2021/12/14 00:09:33;;;;;;;;;;;;;;;7.49;100.00;102699.88;5079444;28;19998;-74
2021/12/14 00:15:04;;;;;;;;;;;;;;;7.45;100.00;102692.75;5077596;28;20015;-74
2021/12/14 00:17:29;;;;;;;;;;;;;;;7.45;100.00;102694.44;5075174;28;19966;-74
2021/12/14 00:19:57;;;;;;;;;;;;;;;7.47;100.00;102709.13;5079803;28;19936;-74
2021/12/14 00:24:06;;;;;;;;;;;;;;;7.48;100.00;102710.91;5073852;28;19924;-74
2021/12/14 00:25:24;;;;;;;;;;;;;;;7.41;100.00;102710.38;5075394;28;19924;-74
2021/12/14 00:27:50;;;;;;;;;;;;;;;7.37;100.00;102711.81;5081243;28;19912;-74
2021/12/14 00:30:15;;;;;;;;;;;;;;;7.39;100.00;102709.38;5070468;28;19920;-75
2021/12/14 00:32:41;;;;;;;;;;;;;;;7.37;100.00;102711.81;5077372;28;19999;-74
2021/12/14 00:35:12;;;;;;;;;;;;;;;7.37;100.00;102713.50;5076310;28;19920;-73
2021/12/14 00:37:39;;;;;;;;;;;;;;;7.36;100.00;102719.41;5077420;28;19920;-73
2021/12/14 00:40:08;;;;;;;;;;;;;;;7.42;100.00;102724.94;5076423;28;19959;-74
2021/12/14 00:42:34;;;;;;;;;;;;;;;7.38;100.00;102731.50;5078510;28;19934;-74
2021/12/14 00:44:59;;;;;;;;;;;;;;;7.38;100.00;102733.19;5075870;28;20560;-74
2021/12/14 00:47:24;;;;;;;;;;;;;;;7.36;100.00;102732.19;5077096;28;19934;-75
2021/12/14 00:49:52;;;;;;;;;;;;;;;7.35;100.00;102744.09;5085112;28;19961;-74
2021/12/14 00:52:17;;;;;;;;;;;;;;;7.38;100.00;102752.00;5083317;28;19916;-74
2021/12/14 00:54:42;;;;;;;;;;;;;;;7.38;100.00;102758.78;5085707;28;20293;-74
2021/12/14 00:57:08;;;;;;;;;;;;;;;7.35;100.00;102745.78;5083157;28;19950;-73
2021/12/14 00:59:34;;;;;;;;;;;;;;;7.41;100.00;102757.34;5085384;28;19912;-74
2021/12/14 01:02:02;;;;;;;;;;;;;;;7.42;100.00;102753.09;5082779;28;19920;-74
2021/12/14 01:04:32;;;;;;;;;;;;;;;7.36;100.00;102745.88;5082522;28;19916;-73
2021/12/14 01:06:58;;;;;;;;;;;;;;;7.41;100.00;102739.44;5081972;28;19989;-74
2021/12/14 01:09:25;;;;;;;;;;;;;;;7.40;100.00;102724.84;5082179;28;19916;-72
2021/12/14 01:11:51;;;;;;;;;;;;;;;7.39;100.00;102728.16;5083211;28;19920;-74
2021/12/14 01:14:27;;;;;;;;;;;;;;;7.34;100.00;102737.22;5084224;28;19924;-74
2021/12/14 01:17:06;;;;;;;;;;;;;;;7.34;100.00;102728.63;5082142;28;19916;-74
2021/12/14 01:19:32;;;;;;;;;;;;;;;7.40;100.00;102726.50;5084405;28;20002;-74
2021/12/14 01:25:00;;;;;;;;;;;;;;;7.35;100.00;102743.22;5083802;28;20278;-74
2021/12/14 01:27:24;;;;;;;;;;;;;;;7.33;100.00;102725.19;5083206;28;19967;-73
2021/12/14 01:29:53;;;;;;;;;;;;;;;7.37;100.00;102719.50;5080759;28;19919;-73
2021/12/14 01:32:20;;;;;;;;;;;;;;;7.39;100.00;102706.81;5081848;28;19926;-74
2021/12/14 01:34:46;;;;;;;;;;;;;;;7.32;100.00;102720.84;5084788;28;20339;-73
2021/12/14 01:37:15;;;;;;;;;;;;;;;7.35;100.00;102708.28;5080426;28;19920;-74
2021/12/14 01:42:21;;;;;;;;;;;;;;;7.31;100.00;102715.63;5082718;28;19961;-74
2021/12/14 01:44:55;;;;;;;;;;;;;;;7.29;100.00;102709.53;5084401;28;19924;-74
2021/12/14 01:47:26;;;;;;;;;;;;;;;7.31;100.00;102707.94;5081933;28;19916;-74
2021/12/14 01:49:52;;;;;;;;;;;;;;;7.35;100.00;102703.16;5085602;28;19952;-74
2021/12/14 01:52:22;;;;;;;;;;;;;;;7.35;100.00;102709.97;5080470;28;19923;-74
2021/12/14 01:54:50;;;;;;;;;;;;;;;7.31;100.00;102698.59;5083954;28;19919;-74
2021/12/14 01:57:17;;;;;;;;;;;;;;;7.33;100.00;102696.13;5084784;28;19915;-74
2021/12/14 01:59:45;;;;;;;;;;;;;;;7.29;100.00;102697.63;5083825;28;19923;-74
2021/12/14 02:02:30;;;;;;;;;;;;;;;7.28;100.00;102693.28;5080222;28;19920;-74
2021/12/14 02:04:57;;;;;;;;;;;;;;;7.24;100.00;102692.16;5081455;28;19911;-74
2021/12/14 02:07:24;;;;;;;;;;;;;;;7.27;100.00;102676.13;5081722;28;19920;-74
2021/12/14 02:09:53;;;;;;;;;;;;;;;7.29;100.00;102678.81;5084033;28;20097;-74
2021/12/14 02:12:20;;;;;;;;;;;;;;;7.22;100.00;102673.28;5087521;28;19912;-74
2021/12/14 02:14:46;;;;;;;;;;;;;;;7.21;100.00;102681.69;5086600;28;19958;-74
2021/12/14 02:17:13;;;;;;;;;;;;;;;7.24;100.00;102689.59;5087578;28;19931;-74
2021/12/14 02:19:39;;;;;;;;;;;;;;;7.18;100.00;102691.72;5091878;28;20270;-74
2021/12/14 02:22:07;;;;;;;;;;;;;;;7.16;100.00;102695.88;5087310;28;19920;-74
2021/12/14 02:24:33;;;;;;;;;;;;;;;7.18;100.00;102689.19;5087382;28;19912;-73
2021/12/14 02:26:59;;;;;;;;;;;;;;;7.21;100.00;102688.47;5086363;28;19961;-73
2021/12/14 02:29:26;;;;;;;;;;;;;;;7.13;100.00;102693.06;5087982;28;19928;-73
2021/12/14 02:31:54;;;;;;;;;;;;;;;7.17;100.00;102694.19;5086976;27;19918;-74
2021/12/14 02:34:19;;;;;;;;;;;;;;;7.13;100.00;102689.63;5085095;28;19966;-74
2021/12/14 02:36:47;;;;;;;;;;;;;;;7.11;100.00;102698.88;5087908;28;19923;-73
2021/12/14 02:40:19;;;;;;;;;;;;;;;7.10;100.00;102705.66;5085572;28;20002;-74
2021/12/14 02:42:20;;;;;;;;;;;;;;;7.11;100.00;102694.63;5079194;28;19995;-73
2021/12/14 02:44:51;;;;;;;;;;;;;;;7.11;100.00;102697.19;5085504;28;19916;-74
2021/12/14 02:47:17;;;;;;;;;;;;;;;7.11;100.00;102701.44;5088671;28;19934;-74
2021/12/14 02:49:43;;;;;;;;;;;;;;;7.10;100.00;102682.63;5085489;28;19924;-74
2021/12/14 02:52:13;;;;;;;;;;;;;;;7.21;100.00;102680.81;5087256;28;19918;-74
2021/12/14 02:54:41;;;;;;;;;;;;;;;7.16;100.00;102674.47;5086277;28;19912;-75
2021/12/14 02:57:08;;;;;;;;;;;;;;;7.12;100.00;102672.50;5087062;28;20378;-75
2021/12/14 02:59:35;;;;;;;;;;;;;;;7.05;100.00;102678.84;5087063;28;19969;-74
2021/12/14 03:02:04;;;;;;;;;;;;;;;7.09;100.00;102672.28;5087938;28;19916;-75
2021/12/14 03:04:30;;;;;;;;;;;;;;;7.08;100.00;102675.63;5088447;28;19912;-75
2021/12/14 03:06:57;;;;;;;;;;;;;;;7.05;100.00;102671.19;5089849;28;20148;-74
2021/12/14 03:12:02;;;;;;;;;;;;;;;7.07;100.00;102656.81;5091931;28;20320;-74
2021/12/14 03:14:27;;;;;;;;;;;;;;;7.13;100.00;102638.47;5084576;28;20003;-74
2021/12/14 03:16:53;;;;;;;;;;;;;;;7.07;100.00;102631.25;5090195;28;20014;-74
2021/12/14 03:19:18;;;;;;;;;;;;;;;7.04;100.00;102641.28;5088220;28;20066;-73
2021/12/14 03:21:46;;;;;;;;;;;;;;;7.03;100.00;102651.38;5086522;28;20000;-73
2021/12/14 03:24:13;;;;;;;;;;;;;;;6.99;100.00;102647.72;5090179;28;19949;-73
2021/12/14 03:26:40;;;;;;;;;;;;;;;7.00;100.00;102652.06;5085627;28;20389;-74
2021/12/14 03:29:16;;;;;;;;;;;;;;;6.95;100.00;102644.06;5089712;28;19919;-74
2021/12/14 03:31:43;;;;;;;;;;;;;;;6.91;100.00;102648.84;5085764;28;19994;-74
2021/12/14 03:34:14;;;;;;;;;;;;;;;6.88;100.00;102646.97;5087847;28;20031;-73
2021/12/14 03:36:48;;;;;;;;;;;;;;;6.91;100.00;102642.03;5085367;28;20006;-73
2021/12/14 03:39:34;;;;;;;;;;;;;;;6.91;100.00;102636.03;5086846;28;19912;-74
2021/12/14 03:42:05;;;;;;;;;;;;;;;6.88;100.00;102639.28;5088977;28;19915;-73
2021/12/14 03:44:34;;;;;;;;;;;;;;;6.92;100.00;102645.53;5090102;28;19915;-73
2021/12/14 03:46:59;;;;;;;;;;;;;;;6.87;100.00;102665.63;5085744;28;20358;-73
2021/12/14 03:49:31;;;;;;;;;;;;;;;6.83;100.00;102668.75;5086312;28;19919;-74
2021/12/14 03:51:56;;;;;;;;;;;;;;;6.83;100.00;102678.97;5092065;28;19915;-73
2021/12/14 03:54:22;;;;;;;;;;;;;;;6.84;100.00;102690.09;5089163;28;19927;-74
2021/12/14 03:56:48;;;;;;;;;;;;;;;6.82;100.00;102690.00;5086977;28;19924;-74
2021/12/14 03:59:14;;;;;;;;;;;;;;;6.90;100.00;102693.97;5083870;28;20355;-74
2021/12/14 04:01:41;;;;;;;;;;;;;;;6.86;100.00;102691.13;5079780;28;19923;-74
2021/12/14 04:04:11;;;;;;;;;;;;;;;6.82;100.00;102700.22;5079796;28;19920;-74
2021/12/14 04:06:37;;;;;;;;;;;;;;;6.88;100.00;102703.22;5087593;28;19919;-74
2021/12/14 04:09:03;;;;;;;;;;;;;;;6.83;100.00;102704.53;5085606;28;19988;-74
2021/12/14 04:11:29;;;;;;;;;;;;;;;6.85;100.00;102700.41;5090796;28;19962;-74
2021/12/14 04:13:54;;;;;;;;;;;;;;;6.88;100.00;102693.00;5088754;28;20348;-74
2021/12/14 04:16:21;;;;;;;;;;;;;;;6.82;100.00;102684.88;5087598;28;19920;-74
2021/12/14 04:18:47;;;;;;;;;;;;;;;6.81;100.00;102687.31;5083386;28;20224;-74
2021/12/14 04:21:13;;;;;;;;;;;;;;;6.83;100.00;102686.66;5085620;28;19947;-74
2021/12/14 04:23:41;;;;;;;;;;;;;;;6.83;100.00;102690.88;5084526;28;20058;-74
2021/12/14 04:26:08;;;;;;;;;;;;;;;6.80;100.00;102681.31;5089228;28;19912;-74
2021/12/14 04:28:35;;;;;;;;;;;;;;;6.80;100.00;102691.56;5086898;28;19923;-74
2021/12/14 04:31:01;;;;;;;;;;;;;;;6.79;100.00;102689.75;5084872;28;19946;-74
2021/12/14 04:33:31;;;;;;;;;;;;;;;6.81;100.00;102683.09;5084650;28;20401;-74
2021/12/14 04:35:56;;;;;;;;;;;;;;;6.78;100.00;102681.97;5100794;27;19916;-74
2021/12/14 04:38:27;;;;;;;;;;;;;;;6.79;100.00;102679.53;5085046;28;19927;-74
2021/12/14 04:52:21;;;;;;;;;;;;;;;6.84;100.00;102670.53;5077675;28;19919;-74
2021/12/14 04:54:55;;;;;;;;;;;;;;;6.80;100.00;102676.22;5085215;28;19920;-74
2021/12/14 04:57:43;;;;;;;;;;;;;;;6.80;100.00;102670.22;5081385;28;19965;-74
2021/12/14 05:00:17;;;;;;;;;;;;;;;6.78;100.00;102671.75;5083914;28;20247;-75
2021/12/14 05:02:42;;;;;;;;;;;;;;;6.80;100.00;102670.22;5085197;28;19916;-74
2021/12/14 05:05:10;;;;;;;;;;;;;;;6.86;100.00;102670.66;5085830;28;19969;-74
2021/12/14 05:10:07;;;;;;;;;;;;;;;6.76;100.00;102665.66;5088445;28;20367;-74
2021/12/14 05:12:34;;;;;;;;;;;;;;;6.76;100.00;102666.53;5086077;28;19918;-74
2021/12/14 05:15:00;;;;;;;;;;;;;;;6.73;100.00;102663.75;5080618;28;19940;-74
2021/12/14 05:17:30;;;;;;;;;;;;;;;6.73;100.00;102653.50;5088941;28;19916;-74
2021/12/14 05:19:56;;;;;;;;;;;;;;;6.76;100.00;102655.41;5085537;28;19916;-74
2021/12/14 05:22:42;;;;;;;;;;;;;;;6.77;100.00;102652.09;5082874;28;19920;-74
2021/12/14 05:25:11;;;;;;;;;;;;;;;6.77;100.00;102655.53;5086899;28;19961;-74
2021/12/14 05:27:43;;;;;;;;;;;;;;;6.77;100.00;102657.19;5088384;28;19961;-74
2021/12/14 05:30:08;;;;;;;;;;;;;;;6.81;100.00;102644.75;5088331;28;19922;-74
2021/12/14 05:32:34;;;;;;;;;;;;;;;6.76;100.00;102643.53;5084330;28;20010;-74
2021/12/14 05:34:59;;;;;;;;;;;;;;;6.79;100.00;102648.84;5085174;28;20328;-73
2021/12/14 05:37:31;;;;;;;;;;;;;;;6.78;100.00;102646.19;5085893;28;20324;-74
2021/12/14 05:40:04;;;;;;;;;;;;;;;6.71;100.00;102653.41;5081017;28;19918;-74
2021/12/14 05:45:16;;;;;;;;;;;;;;;6.75;100.00;102656.19;5083918;28;19919;-73
2021/12/14 05:47:46;;;;;;;;;;;;;;;6.70;100.00;102661.88;5085135;28;20002;-73
2021/12/14 05:50:16;;;;;;;;;;;;;;;6.71;100.00;102673.88;5088736;28;19985;-74
2021/12/14 05:52:42;;;;;;;;;;;;;;;6.73;100.00;102671.41;5087092;28;20392;-73
2021/12/14 05:55:07;;;;;;;;;;;;;;;6.72;100.00;102662.84;5086163;28;19920;-74
2021/12/14 05:57:33;;;;;;;;;;;;;;;6.72;100.00;102667.09;5086455;28;19927;-73
2021/12/14 05:59:58;;;;;;;;;;;;;;;6.73;100.00;102673.97;5084713;28;19912;-74
2021/12/14 06:02:24;;;;;;;;;;;;;;;6.72;100.00;102669.63;5076880;28;19926;-74
2021/12/14 06:04:50;;;;;;;;;;;;;;;6.77;100.00;102675.97;5076888;28;19923;-74
2021/12/14 06:07:17;;;;;;;;;;;;;;;6.75;100.00;102677.53;5077142;28;19999;-74
2021/12/14 06:09:45;;;;;;;;;;;;;;;6.71;100.00;102676.41;5077526;28;19912;-74
2021/12/14 06:12:16;;;;;;;;;;;;;;;6.77;100.00;102681.09;5079293;28;19915;-73
2021/12/14 06:14:50;;;;;;;;;;;;;;;6.71;100.00;102684.09;5079519;28;20003;-74
2021/12/14 06:17:15;;;;;;;;;;;;;;;6.71;100.00;102686.66;5076624;28;20231;-75
2021/12/14 06:19:42;;;;;;;;;;;;;;;6.72;100.00;102690.09;5076408;28;19920;-73
2021/12/14 06:22:07;;;;;;;;;;;;;;;6.70;100.00;102689.09;5076243;28;19920;-74
2021/12/14 06:24:37;;;;;;;;;;;;;;;6.69;100.00;102698.44;5078124;28;19918;-74
2021/12/14 06:27:04;;;;;;;;;;;;;;;6.70;100.00;102696.78;5076453;28;19973;-74
2021/12/14 06:29:29;;;;;;;;;;;;;;;6.72;100.00;102697.75;5078285;28;19926;-74
2021/12/14 06:31:54;;;;;;;;;;;;;;;6.70;100.00;102695.09;5079848;28;19919;-74
2021/12/14 06:34:24;;;;;;;;;;;;;;;6.72;100.00;102690.09;5081759;28;20343;-73
2021/12/14 06:37:17;;;;;;;;;;;;;;;6.71;100.00;102696.00;5078252;28;19962;-73
2021/12/14 06:39:57;;;;;;;;;;;;;;;6.71;100.00;102690.88;5077864;28;20007;-73
2021/12/14 06:42:22;;;;;;;;;;;;;;;6.68;100.00;102691.56;5089365;28;20010;-74
2021/12/14 06:44:48;;;;;;;;;;;;;;;6.70;100.00;102689.09;5094447;28;20004;-74
2021/12/14 06:47:13;;;;;;;;;;;;;;;6.69;100.00;102695.88;5086790;28;19927;-73
2021/12/14 06:49:38;;;;;;;;;;;;;;;6.69;100.00;102702.66;5089937;28;19916;-74
2021/12/14 06:52:04;;;;;;;;;;;;;;;6.70;100.00;102713.00;5085574;28;19916;-75
2021/12/14 06:54:29;;;;;;;;;;;;;;;6.76;100.00;102714.22;5090044;28;19926;-74
2021/12/14 06:56:57;;;;;;;;;;;;;;;6.69;100.00;102715.44;5089637;28;19916;-74
2021/12/14 06:59:22;;;;;;;;;;;;;;;6.68;100.00;102719.69;5082510;28;19939;-74
2021/12/14 07:01:49;;;;;;;;;;;;;;;6.71;100.00;102719.00;5091739;28;20271;-74
2021/12/14 07:04:17;;;;;;;;;;;;;;;6.68;100.00;102716.22;5091934;28;19911;-74
2021/12/14 07:07:02;;;;;;;;;;;;;;;6.67;100.00;102723.00;5092098;28;19913;-74
2021/12/14 07:09:30;;;;;;;;;;;;;;;6.70;100.00;102718.09;5089622;28;20015;-74
2021/12/14 07:12:01;;;;;;;;;;;;;;;6.66;100.00;102723.75;5088505;28;19912;-74
2021/12/14 07:14:26;;;;;;;;;;;;;;;6.67;100.00;102727.22;5092157;28;20001;-74
2021/12/14 07:16:52;;;;;;;;;;;;;;;6.71;100.00;102732.66;5088014;28;19933;-74
2021/12/14 07:19:17;;;;;;;;;;;;;;;6.69;100.00;102736.78;5087323;28;20275;-73
2021/12/14 07:21:48;;;;;;;;;;;;;;;6.67;100.00;102738.34;5094801;28;19923;-75
2021/12/14 07:24:22;;;;;;;;;;;;;;;6.67;100.00;102737.44;5090929;28;19926;-75
2021/12/14 07:26:48;;;;;;;;;;;;;;;6.69;100.00;102746.13;5092370;28;19915;-75
2021/12/14 07:29:20;;;;;;;;;;;;;;;6.68;100.00;102746.91;5091176;28;19944;-75
2021/12/14 07:31:46;;;;;;;;;;;;;;;6.69;100.00;102753.78;5090543;28;19920;-75
2021/12/14 07:34:11;;;;;;;;;;;;;;;6.70;100.00;102760.69;5090379;28;19968;-74
2021/12/14 07:36:37;;;;;;;;;;;;;;;6.72;100.00;102751.44;5093584;28;20049;-74
2021/12/14 07:39:05;;;;;;;;;;;;;;;6.72;100.00;102757.44;5090872;28;20401;-73
2021/12/14 07:41:33;;;;;;;;;;;;;;;6.71;100.00;102759.91;5086232;28;20331;-74
2021/12/14 07:44:01;;;;;;;;;;;;;;;6.75;100.00;102763.59;5087168;28;20007;-74
2021/12/14 07:46:27;;;;;;;;;;;;;;;6.72;100.00;102766.78;5084362;28;19920;-74
2021/12/14 07:48:56;;;;;;;;;;;;;;;6.73;100.00;102766.00;5087687;28;19929;-73
2021/12/14 07:51:23;;;;;;;;;;;;;;;6.76;100.00;102765.34;5082452;28;20039;-75
2021/12/14 07:53:51;;;;;;;;;;;;;;;6.75;100.00;102779.81;5088536;28;19924;-74
2021/12/14 07:56:25;;;;;;;;;;;;;;;6.76;100.00;102771.38;5088810;28;19919;-74
2021/12/14 07:58:50;;;;;;;;;;;;;;;6.78;100.00;102777.47;5089096;28;19995;-74
2021/12/14 08:01:16;;;;;;;;;;;;;;;6.87;100.00;102774.72;5087029;28;20007;-74
2021/12/14 08:03:41;;;;;;;;;;;;;;;6.86;100.00;102784.06;5090728;28;19991;-75
2021/12/14 08:06:09;;;;;;;;;;;;;;;6.81;100.00;102780.25;5086743;28;19920;-74
2021/12/14 08:08:53;;;;;;;;;;;;;;;6.82;100.00;102784.59;5090641;28;19919;-74
2021/12/14 08:11:53;;;;;;;;;;;;;;;6.85;100.00;102782.25;5088383;28;19956;-74
2021/12/14 08:14:17;;;;;;;;;;;;;;;6.89;100.00;102793.59;5083785;28;19920;-74
2021/12/14 08:17:02;;;;;;;;;;;;;;;6.88;100.00;102784.16;5087725;28;19922;-75
2021/12/14 08:19:31;;;;;;;;;;;;;;;6.86;100.00;102791.72;5088528;28;20530;-75
2021/12/14 08:21:57;;;;;;;;;;;;;;;6.89;100.00;102783.38;5088197;28;19984;-74
2021/12/14 08:24:22;;;;;;;;;;;;;;;6.92;100.00;102781.94;5080282;28;19990;-74
2021/12/14 08:26:51;;;;;;;;;;;;;;;6.96;100.00;102788.16;5088580;28;19919;-75
2021/12/14 08:29:16;;;;;;;;;;;;;;;6.96;100.00;102789.03;5088776;28;19997;-74
2021/12/14 08:31:41;;;;;;;;;;;;;;;6.98;100.00;102792.63;5087997;28;19981;-75
2021/12/14 08:34:08;;;;;;;;;;;;;;;7.02;100.00;102788.59;5085478;28;19919;-74
2021/12/14 08:36:35;;;;;;;;;;;;;;;7.00;100.00;102792.72;5081952;28;20002;-75
2021/12/14 08:39:07;;;;;;;;;;;;;;;7.07;100.00;102797.50;5088464;28;20267;-74
2021/12/14 08:41:33;;;;;;;;;;;;;;;7.08;100.00;102799.28;5092979;28;19916;-74
2021/12/14 08:44:04;;;;;;;;;;;;;;;7.09;100.00;102790.81;5086583;28;19923;-74
2021/12/14 08:46:30;;;;;;;;;;;;;;;7.12;100.00;102793.63;5089211;28;19981;-75
2021/12/14 08:48:57;;;;;;;;;;;;;;;7.14;100.00;102798.84;5091198;28;20346;-74
2021/12/14 08:51:26;;;;;;;;;;;;;;;7.19;100.00;102803.53;5087996;28;19995;-74
2021/12/14 08:53:57;;;;;;;;;;;;;;;7.17;100.00;102807.66;5088767;28;19916;-74
2021/12/14 08:56:23;;;;;;;;;;;;;;;7.23;100.00;102804.66;5086859;28;20374;-72
2021/12/14 08:58:49;;;;;;;;;;;;;;;7.30;100.00;102808.53;5082102;28;20262;-74
2021/12/14 09:01:16;;;;;;;;;;;;;;;7.30;100.00;102806.88;5082518;28;19919;-74
2021/12/14 09:03:45;;;;;;;;;;;;;;;7.35;100.00;102809.75;5088275;28;20007;-75
2021/12/14 09:06:19;;;;;;;;;;;;;;;7.42;100.00;102800.06;5082857;28;20372;-75
2021/12/14 09:08:45;;;;;;;;;;;;;;;7.48;100.00;102802.19;5090122;28;19915;-74
2021/12/14 09:11:12;;;;;;;;;;;;;;;7.62;100.00;102804.03;5087363;28;19915;-74
2021/12/14 09:13:38;;;;;;;;;;;;;;;7.69;100.00;102803.69;5088230;28;19914;-77
2021/12/14 09:16:05;;;;;;;;;;;;;;;7.84;100.00;102814.13;5085037;28;19923;-76
2021/12/14 09:18:33;;;;;;;;;;;;;;;7.97;100.00;102814.19;5092035;28;19916;-76
2021/12/14 09:21:19;;;;;;;;;;;;;;;8.07;100.00;102811.50;5084740;28;19916;-75
2021/12/14 09:23:46;;;;;;;;;;;;;;;8.21;100.00;102814.13;5088828;28;19912;-75
2021/12/14 09:26:15;;;;;;;;;;;;;;;8.30;100.00;102817.28;5087101;28;20362;-75
2021/12/14 09:28:41;;;;;;;;;;;;;;;8.41;100.00;102816.38;5086248;28;20271;-74
2021/12/14 09:31:08;;;;;;;;;;;;;;;8.50;100.00;102814.47;5091885;28;20385;-74
2021/12/14 09:33:36;;;;;;;;;;;;;;;8.54;100.00;102811.31;5078080;28;19981;-74
2021/12/14 09:36:08;;;;;;;;;;;;;;;8.63;100.00;102815.28;5086465;28;19920;-75
2021/12/14 09:38:39;;;;;;;;;;;;;;;8.74;100.00;102824.59;5087281;28;20355;-76
2021/12/14 09:41:07;;;;;;;;;;;;;;;8.70;98.71;102817.47;5086219;28;19912;-76
2021/12/14 09:43:32;;;;;;;;;;;;;;;8.78;100.00;102816.28;5084264;28;19927;-76
2021/12/14 09:45:59;;;;;;;;;;;;;;;9.14;98.60;102800.75;5089524;28;19920;-75
2021/12/14 09:48:27;;;;;;;;;;;;;;;9.40;95.90;102805.00;5086069;28;19927;-77
2021/12/14 09:50:53;;;;;;;;;;;;;;;9.48;96.01;102794.31;5087251;28;19912;-75
2021/12/14 09:53:20;;;;;;;;;;;;;;;9.45;96.02;102794.13;5082700;28;19969;-75
2021/12/14 09:55:47;;;;;;;;;;;;;;;9.43;98.05;102798.28;5088137;28;19924;-75
2021/12/14 09:58:18;;;;;;;;;;;;;;;9.43;98.01;102791.47;5087626;28;19996;-75
2021/12/14 10:00:48;;;;;;;;;;;;;;;9.39;96.13;102792.94;5088826;28;19916;-75
2021/12/14 10:03:14;;;;;;;;;;;;;;;9.54;95.49;102795.59;5087755;28;19970;-74
2021/12/14 10:05:43;;;;;;;;;;;;;;;9.68;97.30;102801.59;5089564;28;19954;-75
2021/12/14 10:08:15;;;;;;;;;;;;;;;9.68;95.48;102797.34;5077601;28;19978;-74
2021/12/14 10:10:45;;;;;;;;;;;;;;;9.70;95.02;102797.41;5084739;28;19912;-75
2021/12/14 10:13:11;;;;;;;;;;;;;;;9.84;96.86;102800.88;5083922;28;20380;-74
2021/12/14 10:15:38;;;;;;;;;;;;;;;9.93;93.50;102806.56;5085999;28;19908;-74
2021/12/14 10:18:06;;;;;;;;;;;;;;;9.94;93.38;102809.22;5089668;28;19935;-75
2021/12/14 10:20:37;;;;;;;;;;;;;;;9.88;93.71;102807.94;5084702;28;19919;-75
2021/12/14 10:23:04;;;;;;;;;;;;;;;9.77;94.74;102798.69;5087952;28;19908;-75
2021/12/14 10:25:30;;;;;;;;;;;;;;;9.74;95.38;102808.78;5086737;28;20309;-75
2021/12/14 10:27:56;;;;;;;;;;;;;;;9.65;93.20;102810.00;5088851;28;19908;-76
2021/12/14 10:30:25;;;;;;;;;;;;;;;9.58;95.43;102802.69;5083391;28;19930;-75
2021/12/14 10:32:51;;;;;;;;;;;;;;;9.50;94.53;102814.16;5085656;28;20024;-75
2021/12/14 10:35:22;;;;;;;;;;;;;;;9.39;94.68;102816.03;5086515;28;20371;-75
2021/12/14 10:38:08;;;;;;;;;;;;;;;9.31;96.01;102817.22;5089494;28;19911;-75
2021/12/14 10:43:19;;;;;;;;;;;;;;;9.22;96.29;102815.75;5089684;28;19964;-75
2021/12/14 10:45:55;;;;;;;;;;;;;;;9.29;96.27;102811.13;5085988;28;19913;-74
2021/12/14 10:48:23;;;;;;;;;;;;;;;9.11;97.34;102812.50;5090539;28;19977;-75
2021/12/14 10:50:50;;;;;;;;;;;;;;;9.09;96.97;102802.13;5089609;28;19923;-75
2021/12/14 10:53:19;;;;;;;;;;;;;;;9.05;97.23;102801.84;5090311;28;19911;-75
2021/12/14 10:55:47;;;;;;;;;;;;;;;9.00;97.29;102806.66;5084442;28;19916;-75
2021/12/14 10:58:14;;;;;;;;;;;;;;;9.01;96.54;102808.44;5090969;28;19908;-74
2021/12/14 11:00:55;;;;;;;;;;;;;;;9.05;97.14;102807.84;5090817;28;19916;-75
2021/12/14 11:03:23;;;;;;;;;;;;;;;9.19;97.46;102800.16;5091639;28;20234;-75
2021/12/14 11:05:52;;;;;;;;;;;;;;;9.25;97.05;102803.13;5090244;28;19923;-75
2021/12/14 11:11:04;;;;;;;;;;;;;;;9.22;96.50;102802.91;5092478;28;20011;-75
2021/12/14 11:13:37;;;;;;;;;;;;;;;9.30;97.87;102800.06;5087272;28;19912;-75
2021/12/14 11:16:03;;;;;;;;;;;;;;;9.34;97.65;102791.78;5082624;28;20686;-75
2021/12/14 11:18:28;;;;;;;;;;;;;;;9.41;97.04;102787.91;5091085;28;20371;-75
2021/12/14 11:20:53;;;;;;;;;;;;;;;9.52;96.68;102786.00;5092170;28;19918;-74
2021/12/14 11:23:24;;;;;;;;;;;;;;;9.58;95.22;102781.25;5088903;28;19912;-76
2021/12/14 11:25:54;;;;;;;;;;;;;;;9.55;96.72;102781.94;5091507;28;19958;-76
2021/12/14 11:28:19;;;;;;;;;;;;;;;9.57;95.84;102779.47;5091543;28;20366;-76
2021/12/14 11:31:04;;;;;;;;;;;;;;;9.65;94.13;102779.19;5090686;28;19926;-75
2021/12/14 11:33:45;;;;;;;;;;;;;;;9.57;95.14;102776.91;5087772;28;19927;-74
2021/12/14 11:36:37;;;;;;;;;;;;;;;9.66;95.92;102783.53;5088167;28;20382;-76
2021/12/14 11:39:23;;;;;;;;;;;;;;;9.63;96.64;102770.47;5087589;28;20380;-75
2021/12/14 11:41:49;;;;;;;;;;;;;;;9.68;96.09;102774.22;5092598;28;19920;-74
2021/12/14 11:44:20;;;;;;;;;;;;;;;9.71;96.45;102770.97;5089557;28;19931;-75
2021/12/14 11:46:58;;;;;;;;;;;;;;;9.73;96.43;102766.81;5085542;28;19912;-75
2021/12/14 11:49:25;;;;;;;;;;;;;;;9.77;95.98;102770.44;5083222;28;19924;-75
2021/12/14 11:51:52;;;;;;;;;;;;;;;9.74;95.98;102772.81;5090106;28;19926;-76
2021/12/14 11:54:19;;;;;;;;;;;;;;;9.66;95.71;102775.81;5086350;28;19919;-76
2021/12/14 11:56:45;;;;;;;;;;;;;;;9.60;95.26;102766.84;5087080;28;19923;-76
2021/12/14 11:59:11;;;;;;;;;;;;;;;9.57;96.28;102764.94;5083261;28;19917;-76
2021/12/14 12:01:51;;;;;;;;;;;;;;;9.53;95.27;102778.41;5090775;28;19923;-75
2021/12/14 12:04:21;;;;;;;;;;;;;;;9.50;95.87;102777.31;5088292;28;19916;-75
2021/12/14 12:09:35;;;;;;;;;;;;;;;9.52;96.22;102776.59;5089729;28;19950;-75
2021/12/14 12:12:06;;;;;;;;;;;;;;;9.50;95.86;102770.50;5089595;28;20355;-76
2021/12/14 12:14:34;;;;;;;;;;;;;;;9.50;96.30;102787.59;5085032;28;19915;-75
2021/12/14 12:17:14;;;;;;;;;;;;;;;9.49;96.41;102776.44;5091503;28;20391;-75
2021/12/14 12:19:41;;;;;;;;;;;;;;;9.45;96.89;102779.59;5089391;28;19961;-75
2021/12/14 12:22:11;;;;;;;;;;;;;;;9.40;96.60;102775.84;5092561;28;19920;-76
2021/12/14 12:24:41;;;;;;;;;;;;;;;9.38;96.68;102773.19;5089584;28;20078;-75
2021/12/14 12:27:21;;;;;;;;;;;;;;;9.28;96.54;102775.97;5084814;28;20427;-75
2021/12/14 12:29:47;;;;;;;;;;;;;;;9.25;96.77;102775.78;5086553;28;19912;-76
2021/12/14 12:32:23;;;;;;;;;;;;;;;9.27;97.54;102774.19;5089813;28;19920;-74
2021/12/14 12:34:50;;;;;;;;;;;;;;;9.32;97.72;102767.66;5090364;28;20412;-74
2021/12/14 12:37:16;;;;;;;;;;;;;;;9.40;96.92;102773.28;5089690;28;20086;-74
2021/12/14 12:39:49;;;;;;;;;;;;;;;9.41;97.28;102767.38;5091090;28;20316;-74
2021/12/14 12:42:16;;;;;;;;;;;;;;;9.44;97.43;102770.13;5089499;28;19916;-75
2021/12/14 12:44:43;;;;;;;;;;;;;;;9.53;97.24;102767.25;5089575;28;19919;-74
2021/12/14 12:47:16;;;;;;;;;;;;;;;9.60;97.28;102770.28;5085181;28;19924;-74
2021/12/14 12:49:45;;;;;;;;;;;;;;;9.59;96.46;102763.38;5089474;28;19916;-75
2021/12/14 12:52:10;;;;;;;;;;;;;;;9.60;96.27;102762.59;5088725;28;20366;-74
2021/12/14 12:54:38;;;;;;;;;;;;;;;9.63;96.83;102760.19;5090082;28;19916;-74
2021/12/14 12:57:07;;;;;;;;;;;;;;;9.62;97.09;102763.56;5088457;28;19993;-74
2021/12/14 13:00:09;;;;;;;;;;;;;;;9.64;97.21;102764.53;5086532;28;19907;-75
2021/12/14 13:02:34;;;;;;;;;;;;;;;9.59;97.02;102759.94;5029740;28;20023;-74
2021/12/14 13:05:16;;;;;;;;;;;;;;;9.54;97.50;102762.22;5073928;28;20029;-74
2021/12/14 13:07:44;;;;;;;;;;;;;;;9.53;97.43;102763.00;5083620;28;19916;-75
2021/12/14 13:10:13;;;;;;;;;;;;;;;9.50;97.13;102761.91;5086565;28;19935;-75
2021/12/14 13:12:40;;;;;;;;;;;;;;;9.46;97.43;102763.38;5087959;28;19916;-75
2021/12/14 13:15:26;;;;;;;;;;;;;;;9.40;97.65;102765.56;5088808;28;19922;-74
2021/12/14 13:18:11;;;;;;;;;;;;;;;9.41;98.37;102762.22;5087131;28;20002;-75
2021/12/14 13:20:36;;;;;;;;;;;;;;;9.39;98.44;102764.69;5089350;28;19916;-75
2021/12/14 13:23:01;;;;;;;;;;;;;;;9.44;98.25;102764.09;5084468;28;20573;-74
2021/12/14 13:25:37;;;;;;;;;;;;;;;9.37;97.86;102762.81;5078923;28;19923;-75
2021/12/14 13:28:02;;;;;;;;;;;;;;;9.37;98.58;102760.25;5088925;28;19911;-73